Time;durP1;ratioP1;P1;durP2;ratioP2;P2;SDS_P1;SDS_P2;PMS_P1;PMS_P2;Temp;Humidity;BMP_temperature;BMP_pressure;BME280_temperature;BME280_humidity;BME280_pressure;Samples;Min_cycle;Max_cycle;Signal;HPM_P1;HPM_P2
2024/01/11 00:04:26;;;;;;;32.00;22.48;;;;;;;-2.42;100.00;103321.75;10034675;29;20048;-67
2024/01/11 00:09:23;;;;;;;30.50;20.42;;;;;;;-2.23;100.00;103299.13;10035159;29;20393;-68
2024/01/11 00:14:20;;;;;;;32.97;21.58;;;;;;;-2.07;100.00;103284.88;10039001;29;20039;-69
2024/01/11 00:19:16;;;;;;;38.17;23.02;;;;;;;-2.05;100.00;103281.00;10040311;29;20059;-67
2024/01/11 00:24:13;;;;;;;33.20;22.08;;;;;;;-1.97;100.00;103275.66;10039354;29;20043;-70
2024/01/11 00:29:09;;;;;;;34.35;22.10;;;;;;;-2.28;100.00;103269.34;10037914;29;20496;-67
2024/01/11 00:34:06;;;;;;;34.47;21.00;;;;;;;-2.31;100.00;103269.69;10036562;29;20055;-69
2024/01/11 00:39:02;;;;;;;30.08;20.35;;;;;;;-2.46;100.00;103262.34;10035991;29;20132;-68
2024/01/11 00:43:59;;;;;;;32.72;21.38;;;;;;;-2.40;100.00;103250.09;10042058;29;20080;-67
2024/01/11 00:48:56;;;;;;;35.20;20.98;;;;;;;-2.70;100.00;103259.63;10037280;29;20058;-69
2024/01/11 00:53:53;;;;;;;31.08;20.40;;;;;;;-2.61;100.00;103245.25;10042276;29;20502;-67
2024/01/11 00:58:49;;;;;;;33.38;20.13;;;;;;;-2.48;100.00;103220.59;10045622;28;20047;-68
2024/01/11 01:03:46;;;;;;;28.15;19.13;;;;;;;-2.56;100.00;103208.06;10035043;29;20553;-68
2024/01/11 01:08:43;;;;;;;27.45;19.55;;;;;;;-2.73;100.00;103211.78;10034753;29;20062;-69
2024/01/11 01:13:39;;;;;;;31.77;19.77;;;;;;;-2.56;100.00;103192.00;10035813;29;20139;-68
2024/01/11 01:18:36;;;;;;;30.52;20.27;;;;;;;-2.49;100.00;103203.69;10033943;29;20055;-69
2024/01/11 01:23:32;;;;;;;29.73;19.95;;;;;;;-2.52;100.00;103177.25;10032743;29;20397;-71
2024/01/11 01:28:29;;;;;;;29.30;19.45;;;;;;;-2.61;100.00;103189.00;10039938;29;20163;-70
2024/01/11 01:33:25;;;;;;;28.13;19.60;;;;;;;-2.60;100.00;103201.38;10035013;29;20039;-70
2024/01/11 01:38:22;;;;;;;27.58;19.45;;;;;;;-2.50;100.00;103201.22;10026948;29;20044;-69
2024/01/11 01:43:18;;;;;;;27.58;19.17;;;;;;;-2.51;100.00;103186.97;10025300;29;20043;-69
2024/01/11 01:48:15;;;;;;;33.78;18.38;;;;;;;-2.74;100.00;103178.78;10037342;29;20088;-68
2024/01/11 01:53:12;;;;;;;31.00;19.25;;;;;;;-2.86;100.00;103191.69;10031903;29;20047;-66
2024/01/11 01:58:09;;;;;;;29.83;19.45;;;;;;;-2.85;100.00;103190.69;10046966;28;20048;-70
2024/01/11 02:03:06;;;;;;;33.85;21.15;;;;;;;-2.92;100.00;103219.13;10043178;29;20559;-69
2024/01/11 02:08:08;;;;;;;30.50;19.70;;;;;;;-2.84;100.00;103226.31;10031861;29;20052;-69
2024/01/11 02:13:05;;;;;;;31.58;20.38;;;;;;;-2.53;100.00;103202.38;10039148;29;20058;-70
2024/01/11 02:18:06;;;;;;;37.72;21.65;;;;;;;-2.55;100.00;103215.13;10043282;29;20514;-70
2024/01/11 02:23:07;;;;;;;29.27;19.83;;;;;;;-2.61;100.00;103213.94;10038608;29;20052;-69
2024/01/11 02:28:04;;;;;;;31.40;20.98;;;;;;;-2.76;100.00;103223.66;10033475;29;20075;-70
2024/01/11 02:33:01;;;;;;;38.80;21.58;;;;;;;-2.79;100.00;103240.88;10036589;29;20435;-69
2024/01/11 02:37:59;;;;;;;34.38;21.40;;;;;;;-2.59;100.00;103251.28;10031902;29;20043;-68
2024/01/11 02:42:56;;;;;;;38.03;24.08;;;;;;;-2.46;100.00;103230.19;10044110;29;20068;-69
2024/01/11 02:47:52;;;;;;;38.67;23.63;;;;;;;-2.59;100.00;103213.78;10031305;29;20074;-68
2024/01/11 02:52:49;;;;;;;40.10;24.88;;;;;;;-2.62;100.00;103230.19;10041017;29;20048;-71
2024/01/11 02:57:46;;;;;;;42.40;24.33;;;;;;;-2.64;100.00;103224.16;10042663;29;20055;-71
2024/01/11 03:02:42;;;;;;;42.92;23.63;;;;;;;-2.56;100.00;103218.78;10033841;29;20050;-70
2024/01/11 03:07:39;;;;;;;38.60;24.52;;;;;;;-2.57;100.00;103207.25;10034407;29;20063;-69
2024/01/11 03:12:35;;;;;;;44.42;25.80;;;;;;;-2.59;100.00;103229.84;10042858;29;20087;-69
2024/01/11 03:17:34;;;;;;;44.63;23.52;;;;;;;-2.54;100.00;103216.78;10042321;29;20463;-69
2024/01/11 03:22:30;;;;;;;41.42;24.30;;;;;;;-2.45;100.00;103204.22;10035193;29;20054;-69
2024/01/11 03:27:27;;;;;;;39.35;23.55;;;;;;;-2.38;100.00;103219.44;10043970;29;20100;-70
2024/01/11 03:32:23;;;;;;;38.97;23.35;;;;;;;-2.59;100.00;103214.59;10047852;29;20039;-71
2024/01/11 03:37:20;;;;;;;36.00;22.83;;;;;;;-2.48;100.00;103205.41;10029438;29;20147;-69
2024/01/11 03:42:17;;;;;;;28.00;18.70;;;;;;;-2.60;100.00;103233.50;10035028;29;20047;-69
2024/01/11 03:47:13;;;;;;;35.47;22.42;;;;;;;-2.63;100.00;103234.69;10034151;29;20047;-70
2024/01/11 03:52:10;;;;;;;39.72;24.52;;;;;;;-2.68;100.00;103245.06;10033397;29;20043;-71
2024/01/11 03:57:07;;;;;;;35.70;20.90;;;;;;;-2.56;100.00;103234.84;10032882;29;20043;-71
2024/01/11 04:02:03;;;;;;;38.30;22.75;;;;;;;-2.43;100.00;103199.53;10036394;29;20623;-69
2024/01/11 04:07:00;;;;;;;39.22;23.95;;;;;;;-2.59;100.00;103192.34;10035360;29;20142;-68
2024/01/11 04:11:56;;;;;;;37.55;23.30;;;;;;;-2.41;100.00;103179.59;10039422;29;20492;-69
2024/01/11 04:16:53;;;;;;;55.15;27.88;;;;;;;-2.57;100.00;103174.25;10040498;28;20055;-70
2024/01/11 04:21:49;;;;;;;38.60;23.88;;;;;;;-2.61;100.00;103175.59;10036357;29;20297;-70
2024/01/11 04:26:46;;;;;;;49.35;24.55;;;;;;;-2.72;100.00;103154.53;10042575;29;20051;-70
2024/01/11 04:31:42;;;;;;;48.58;26.25;;;;;;;-2.62;100.00;103161.38;10040000;29;20052;-69
2024/01/11 04:36:39;;;;;;;59.17;28.48;;;;;;;-2.40;100.00;103133.03;10037319;28;20043;-68
2024/01/11 04:41:36;;;;;;;56.95;29.85;;;;;;;-2.53;100.00;103148.78;10038858;29;20055;-69
2024/01/11 04:46:34;;;;;;;53.72;29.65;;;;;;;-2.60;100.00;103158.50;10034607;29;20508;-71
2024/01/11 04:51:31;;;;;;;49.42;27.45;;;;;;;-2.75;100.00;103135.09;10028491;29;20380;-68
2024/01/11 04:56:29;;;;;;;52.03;29.67;;;;;;;-2.57;100.00;103142.94;10027417;28;20048;-69
2024/01/11 05:01:26;;;;;;;55.33;29.65;;;;;;;-2.63;100.00;103166.91;10045695;29;20507;-68
2024/01/11 05:06:22;;;;;;;52.30;28.60;;;;;;;-2.57;100.00;103175.09;10030718;29;20075;-69
2024/01/11 05:11:20;;;;;;;58.63;29.65;;;;;;;-2.54;100.00;103155.16;10036665;29;20051;-68
2024/01/11 05:16:17;;;;;;;55.25;29.60;;;;;;;-2.43;100.00;103160.16;10044776;28;20100;-68
2024/01/11 05:21:14;;;;;;;55.67;30.27;;;;;;;-2.67;100.00;103146.81;10031925;29;20044;-69
2024/01/11 05:26:13;;;;;;;60.38;29.58;;;;;;;-2.64;100.00;103167.91;10032205;29;20044;-67
2024/01/11 05:31:11;;;;;;;54.67;29.55;;;;;;;-2.68;100.00;103182.66;10036862;29;20050;-70
2024/01/11 05:36:08;;;;;;;48.97;26.88;;;;;;;-2.59;100.00;103187.00;10032963;29;20051;-73
2024/01/11 05:41:04;;;;;;;46.28;28.27;;;;;;;-2.62;100.00;103177.44;10026496;29;20524;-74
2024/01/11 05:46:01;;;;;;;45.13;25.25;;;;;;;-2.57;100.00;103175.09;10030825;29;20257;-74
2024/01/11 05:50:59;;;;;;;52.35;29.58;;;;;;;-2.62;100.00;103149.84;10029015;29;20055;-73
2024/01/11 05:55:56;;;;;;;47.47;26.58;;;;;;;-2.43;100.00;103146.78;10048270;29;20054;-73
2024/01/11 06:00:52;;;;;;;51.05;27.27;;;;;;;-2.29;100.00;103145.22;10031723;29;20047;-74
2024/01/11 06:05:49;;;;;;;47.17;27.95;;;;;;;-2.33;100.00;103133.16;10028790;29;20055;-71
2024/01/11 06:10:46;;;;;;;53.85;27.08;;;;;;;-2.50;100.00;103137.75;10035110;29;20086;-71
2024/01/11 06:15:42;;;;;;;39.15;23.73;;;;;;;-2.52;100.00;103122.84;10024171;29;20043;-71
2024/01/11 06:20:39;;;;;;;47.33;27.05;;;;;;;-2.54;100.00;103141.78;10018952;29;20059;-71
2024/01/11 06:25:36;;;;;;;44.42;24.98;;;;;;;-2.45;100.00;103143.41;10032488;29;20766;-71
2024/01/11 06:30:32;;;;;;;35.65;22.58;;;;;;;-2.27;100.00;103142.38;10036765;29;20062;-71
2024/01/11 06:35:29;;;;;;;38.60;23.05;;;;;;;-2.37;100.00;103132.69;10034331;29;20051;-72
2024/01/11 06:40:26;;;;;;;40.72;23.60;;;;;;;-2.42;100.00;103134.19;10032697;29;20051;-71
2024/01/11 06:45:22;;;;;;;43.63;24.25;;;;;;;-2.42;100.00;103145.75;10042882;29;20065;-71
2024/01/11 06:50:19;;;;;;;40.97;23.65;;;;;;;-2.39;100.00;103140.06;10041331;29;20056;-71
2024/01/11 06:55:15;;;;;;;45.95;23.88;;;;;;;-2.42;100.00;103145.75;10046406;29;20077;-71
2024/01/11 07:00:13;;;;;;;37.63;22.02;;;;;;;-2.22;100.00;103129.28;10039068;29;20408;-71
2024/01/11 07:05:10;;;;;;;48.05;23.40;;;;;;;-2.17;100.00;103122.38;10032912;29;20250;-72
2024/01/11 07:10:06;;;;;;;34.33;21.17;;;;;;;-2.06;100.00;103134.59;10036417;29;20119;-71
2024/01/11 07:15:04;;;;;;;31.95;20.30;;;;;;;-2.14;100.00;103148.00;10032536;29;20051;-71
2024/01/11 07:20:04;;;;;;;30.60;18.90;;;;;;;-1.99;100.00;103145.44;10045092;29;20092;-71
2024/01/11 07:25:00;;;;;;;35.17;20.00;;;;;;;-2.05;100.00;103151.50;10022210;29;20131;-73
2024/01/11 07:29:57;;;;;;;34.70;18.80;;;;;;;-2.14;100.00;103142.66;10033316;29;20048;-72
2024/01/11 07:34:53;;;;;;;48.85;19.23;;;;;;;-2.15;100.00;103143.66;10028704;29;20735;-70
2024/01/11 07:39:49;;;;;;;32.60;18.63;;;;;;;-1.89;100.00;103150.59;10033664;29;20108;-71
2024/01/11 07:44:55;;;;;;;42.72;20.00;;;;;;;-1.97;100.00;103141.59;10025865;29;20555;-71
2024/01/11 07:49:52;;;;;;;32.78;18.02;;;;;;;-1.88;100.00;103146.91;10013116;29;20579;-70
2024/01/11 07:54:48;;;;;;;34.28;19.83;;;;;;;-1.86;100.00;103139.50;10026452;29;20048;-70
2024/01/11 07:59:45;;;;;;;34.78;19.00;;;;;;;-1.76;100.00;103145.50;10038677;29;20047;-72
2024/01/11 08:04:41;;;;;;;35.05;18.85;;;;;;;-1.73;100.00;103139.78;10034215;29;20055;-70
2024/01/11 08:09:44;;;;;;;35.28;18.13;;;;;;;-1.66;100.00;103135.38;10033708;29;20047;-71
2024/01/11 08:14:46;;;;;;;31.60;18.52;;;;;;;-1.60;100.00;103123.97;10022064;29;20083;-71
2024/01/11 08:19:42;;;;;;;33.30;18.37;;;;;;;-1.41;100.00;103119.13;10043684;29;20511;-72
2024/01/11 08:24:39;;;;;;;28.67;18.15;;;;;;;-1.55;100.00;103121.56;10038144;29;20055;-71
2024/01/11 08:29:35;;;;;;;28.25;17.92;;;;;;;-1.40;100.00;103112.75;10035732;29;20043;-71
2024/01/11 08:34:33;;;;;;;27.35;18.42;;;;;;;-1.37;100.00;103118.59;10047434;28;20138;-71
2024/01/11 08:39:31;;;;;;;24.30;17.25;;;;;;;-1.32;100.00;103120.75;10024119;29;20050;-72
2024/01/11 08:44:27;;;;;;;25.90;17.60;;;;;;;-1.19;100.00;103126.31;10037472;29;20095;-71
2024/01/11 08:49:24;;;;;;;32.55;19.05;;;;;;;-1.17;100.00;103112.72;10030300;29;20428;-72
2024/01/11 08:54:21;;;;;;;22.60;17.10;;;;;;;-1.11;100.00;103112.03;10022270;29;20056;-71
2024/01/11 08:59:17;;;;;;;24.85;17.65;;;;;;;-1.19;100.00;103112.91;10033909;29;20043;-71
2024/01/11 09:04:14;;;;;;;27.52;17.17;;;;;;;-1.04;100.00;103106.72;10029286;29;20035;-72
2024/01/11 09:09:13;;;;;;;25.83;17.88;;;;;;;-1.14;100.00;103113.22;10025800;29;20494;-72
2024/01/11 09:14:11;;;;;;;27.50;17.92;;;;;;;-0.99;100.00;103109.72;10044058;28;20067;-71
2024/01/11 09:19:07;;;;;;;27.92;18.27;;;;;;;-0.93;100.00;103103.63;10039026;29;20484;-72
2024/01/11 09:24:04;;;;;;;30.83;18.05;;;;;;;-0.86;100.00;103100.03;10050360;29;20047;-72
2024/01/11 09:29:00;;;;;;;33.25;18.42;;;;;;;-0.67;100.00;103097.84;10048771;29;20051;-72
2024/01/11 09:33:57;;;;;;;31.67;19.40;;;;;;;-0.57;100.00;103108.31;10035852;28;20044;-72
2024/01/11 09:38:54;;;;;;;28.95;17.77;;;;;;;-0.70;100.00;103108.94;10047874;29;20047;-71
2024/01/11 09:43:55;;;;;;;27.25;17.23;;;;;;;-0.70;100.00;103096.31;10047581;29;20048;-70
2024/01/11 09:48:53;;;;;;;26.50;16.60;;;;;;;-0.73;100.00;103099.38;10052715;29;20052;-71
2024/01/11 09:53:51;;;;;;;23.65;15.55;;;;;;;-0.61;100.00;103096.25;10050462;29;20048;-70
2024/01/11 09:58:48;;;;;;;25.23;15.23;;;;;;;-0.44;100.00;103100.44;10035618;29;20051;-72
2024/01/11 10:03:48;;;;;;;24.25;15.90;;;;;;;-0.30;100.00;103083.47;10050526;29;20058;-71
2024/01/11 10:08:44;;;;;;;22.58;15.77;;;;;;;-0.20;100.00;103082.34;10040794;29;20070;-72
2024/01/11 10:13:41;;;;;;;23.23;17.23;;;;;;;-0.12;100.00;103088.44;10035044;29;20071;-72
2024/01/11 10:18:37;;;;;;;23.08;17.17;;;;;;;-0.09;100.00;103079.16;10048740;28;20058;-72
2024/01/11 10:23:34;;;;;;;24.73;17.20;;;;;;;-0.26;100.00;103089.28;10048834;29;20109;-71
2024/01/11 10:28:32;;;;;;;29.45;17.35;;;;;;;-0.11;100.00;103086.59;10034108;29;20051;-72
2024/01/11 10:33:28;;;;;;;26.98;16.73;;;;;;;-0.04;100.00;103095.56;10033899;29;20039;-69
2024/01/11 10:38:26;;;;;;;26.33;18.63;;;;;;;0.12;100.00;103091.84;10042843;28;20084;-70
2024/01/11 10:43:22;;;;;;;25.17;18.17;;;;;;;0.11;100.00;103112.50;10034659;29;20575;-70
2024/01/11 10:48:21;;;;;;;33.30;17.77;;;;;;;0.28;100.00;103133.78;10021954;29;20056;-70
2024/01/11 10:53:27;;;;;;;30.85;18.55;;;;;;;0.29;100.00;103147.06;10041040;29;20123;-69
2024/01/11 10:58:26;;;;;;;26.35;16.85;;;;;;;0.33;100.00;103150.22;10045866;29;20048;-71
2024/01/11 11:03:24;;;;;;;25.33;17.48;;;;;;;0.13;100.00;103136.53;10047268;29;20051;-70
2024/01/11 11:08:23;;;;;;;27.20;17.50;;;;;;;0.18;100.00;103134.09;10041816;28;20043;-70
2024/01/11 11:13:19;;;;;;;22.48;17.45;;;;;;;0.24;100.00;103137.91;10031545;29;20568;-69
2024/01/11 11:18:18;;;;;;;27.42;19.08;;;;;;;0.16;100.00;103123.56;10020086;29;20142;-70
2024/01/11 11:23:19;;;;;;;22.63;16.58;;;;;;;0.11;100.00;103090.16;10018253;29;20063;-70
2024/01/11 11:28:18;;;;;;;25.95;18.52;;;;;;;0.14;100.00;103089.75;10045154;29;20050;-70
2024/01/11 11:33:23;;;;;;;30.38;17.90;;;;;;;0.26;100.00;103092.81;10048229;29;20070;-68
2024/01/11 11:38:22;;;;;;;30.17;18.55;;;;;;;0.18;100.00;103086.50;10035359;29;20139;-70
2024/01/11 11:43:20;;;;;;;25.98;18.77;;;;;;;0.19;100.00;103082.81;10021035;29;20050;-70
2024/01/11 11:48:28;;;;;;;28.77;18.73;;;;;;;0.46;100.00;103093.81;10030550;29;20519;-69
2024/01/11 11:53:25;;;;;;;37.38;20.67;;;;;;;0.43;100.00;103088.00;10031127;29;20119;-70
2024/01/11 11:58:22;;;;;;;34.10;19.15;;;;;;;0.44;100.00;103074.34;10034128;29;20139;-70
2024/01/11 12:03:18;;;;;;;36.20;20.67;;;;;;;0.29;100.00;103070.91;10026195;29;20044;-70
2024/01/11 12:08:15;;;;;;;32.45;20.92;;;;;;;0.38;100.00;103058.97;10037949;29;20066;-72
2024/01/11 12:13:12;;;;;;;37.50;20.85;;;;;;;0.33;100.00;103045.28;10033203;29;20526;-69
2024/01/11 12:18:09;;;;;;;34.83;20.48;;;;;;;0.34;100.00;103041.53;10037694;28;20044;-70
2024/01/11 12:23:06;;;;;;;41.40;21.58;;;;;;;0.26;100.00;103025.53;10037981;29;20411;-69
2024/01/11 12:28:03;;;;;;;38.90;21.48;;;;;;;0.32;100.00;103019.38;10038400;29;20043;-71
2024/01/11 12:33:03;;;;;;;35.22;21.23;;;;;;;0.37;100.00;103015.09;10038735;29;20044;-70
2024/01/11 12:38:06;;;;;;;39.42;21.63;;;;;;;0.42;100.00;103006.44;10034006;29;20039;-69
2024/01/11 12:43:04;;;;;;;39.55;22.70;;;;;;;0.52;100.00;103023.09;10034496;29;20108;-69
2024/01/11 12:48:03;;;;;;;39.63;21.35;;;;;;;0.81;100.00;103018.53;10050295;28;20095;-70
2024/01/11 12:53:18;;;;;;;38.97;22.63;;;;;;;0.74;100.00;103029.28;10032643;29;20043;-69
2024/01/11 12:58:20;;;;;;;35.72;21.92;;;;;;;0.91;100.00;103027.13;10034692;29;20047;-71
2024/01/11 13:03:19;;;;;;;39.63;22.13;;;;;;;0.82;100.00;103029.13;10030551;29;20048;-69
2024/01/11 13:08:16;;;;;;;40.15;22.83;;;;;;;1.02;100.00;103015.81;10028121;29;20596;-70
2024/01/11 13:13:16;;;;;;;38.47;21.52;;;;;;;1.01;100.00;103011.44;10040484;29;20048;-70
2024/01/11 13:18:13;;;;;;;44.28;22.35;;;;;;;1.19;100.00;103007.41;10032514;29;20053;-70
2024/01/11 13:23:14;;;;;;;37.05;22.73;;;;;;;1.25;100.00;103012.84;10031030;29;20053;-69
2024/01/11 13:28:12;;;;;;;29.67;19.33;;;;;;;1.10;100.00;103013.97;10019651;29;20048;-70
2024/01/11 13:33:10;;;;;;;39.15;23.73;;;;;;;1.22;100.00;103023.16;10030149;29;20458;-70
2024/01/11 13:38:07;;;;;;;39.22;23.05;;;;;;;1.14;100.00;103017.91;10034809;29;20047;-70
2024/01/11 13:43:04;;;;;;;39.28;21.23;;;;;;;1.26;100.00;103019.88;10033406;29;20044;-69
2024/01/11 13:48:00;;;;;;;42.25;22.73;;;;;;;1.33;100.00;103035.25;10044964;28;20071;-70
2024/01/11 13:52:57;;;;;;;33.58;21.13;;;;;;;1.35;100.00;103023.25;10042750;29;20052;-69
2024/01/11 13:57:53;;;;;;;36.05;21.92;;;;;;;1.37;100.00;103031.97;10035670;29;20044;-69
2024/01/11 14:02:50;;;;;;;40.15;21.50;;;;;;;1.42;100.00;103029.50;10028510;29;20460;-69
2024/01/11 14:07:47;;;;;;;36.05;22.20;;;;;;;1.45;100.00;103018.31;10032739;29;20670;-70
2024/01/11 14:12:44;;;;;;;38.80;21.33;;;;;;;1.51;100.00;103029.31;10045664;29;20418;-70
2024/01/11 14:17:40;;;;;;;36.38;21.85;;;;;;;1.34;100.00;103043.13;10043046;29;20056;-70
2024/01/11 14:22:39;;;;;;;35.22;22.92;;;;;;;1.27;100.00;103042.25;10040302;29;20059;-70
2024/01/11 14:27:36;;;;;;;39.83;22.70;;;;;;;1.22;100.00;103047.41;10042550;29;20142;-68
2024/01/11 14:32:32;;;;;;;36.15;23.42;;;;;;;1.31;100.00;103059.72;10053845;29;20054;-69
2024/01/11 14:37:35;;;;;;;33.42;20.63;;;;;;;1.38;100.00;103055.19;10043529;29;20047;-70
2024/01/11 14:42:31;;;;;;;30.73;20.15;;;;;;;1.33;100.00;103063.03;10035717;29;20043;-70
2024/01/11 14:47:28;;;;;;;36.53;21.45;;;;;;;1.33;100.00;103068.44;10028595;28;20059;-71
2024/01/11 14:52:25;;;;;;;31.95;19.48;;;;;;;1.34;100.00;103059.31;10037323;29;20051;-69
2024/01/11 14:57:23;;;;;;;31.25;19.25;;;;;;;1.31;100.00;103059.72;10035302;29;20508;-71
2024/01/11 15:02:20;;;;;;;32.88;20.90;;;;;;;1.18;100.00;103062.31;10045406;29;20039;-71
2024/01/11 15:07:16;;;;;;;33.25;18.90;;;;;;;1.09;100.00;103060.78;10032714;29;20040;-71
2024/01/11 15:12:13;;;;;;;29.92;19.40;;;;;;;1.13;100.00;103062.91;10025462;29;20048;-68
2024/01/11 15:17:09;;;;;;;28.40;18.02;;;;;;;1.13;100.00;103072.84;10033109;29;20058;-72
2024/01/11 15:22:08;;;;;;;28.20;18.02;;;;;;;0.96;100.00;103073.16;10042798;29;20047;-72
2024/01/11 15:27:04;;;;;;;24.65;17.23;;;;;;;1.03;100.00;103076.72;10027303;29;20056;-72
2024/01/11 15:32:01;;;;;;;28.27;17.38;;;;;;;0.99;100.00;103088.91;10034489;29;20539;-73
2024/01/11 15:36:57;;;;;;;31.13;17.40;;;;;;;1.00;100.00;103089.78;10048182;29;20441;-71
2024/01/11 15:41:54;;;;;;;22.27;16.63;;;;;;;0.95;100.00;103087.66;10050682;29;20055;-71
2024/01/11 15:46:53;;;;;;;21.58;16.80;;;;;;;1.04;100.00;103088.34;10046004;29;20110;-71
2024/01/11 15:51:49;;;;;;;26.17;17.38;;;;;;;1.00;100.00;103087.91;10048368;29;20051;-72
2024/01/11 15:56:46;;;;;;;21.70;16.17;;;;;;;1.03;100.00;103063.25;10053178;29;20071;-72
2024/01/11 16:01:43;;;;;;;25.45;17.08;;;;;;;0.94;100.00;103075.22;10036989;29;20062;-72
2024/01/11 16:06:55;;;;;;;;;;;;;;;0.95;100.00;103071.50;10025206;29;20524;-71
2024/01/11 16:11:55;;;;;;;20.98;17.10;;;;;;;0.89;100.00;103074.97;10033002;29;19922;-72
2024/01/11 16:16:57;;;;;;;25.25;17.42;;;;;;;0.88;100.00;103084.06;10031897;29;20047;-73
2024/01/11 16:21:54;;;;;;;23.98;17.83;;;;;;;0.84;100.00;103080.13;10032454;29;20043;-71
2024/01/11 16:26:50;;;;;;;23.60;16.90;;;;;;;0.76;100.00;103074.84;10039828;29;20071;-72
2024/01/11 16:31:47;;;;;;;25.55;17.52;;;;;;;0.60;100.00;103063.34;10038607;29;20051;-73
2024/01/11 16:36:44;;;;;;;32.22;18.55;;;;;;;0.45;100.00;103065.25;10036680;29;20047;-73
2024/01/11 16:41:41;;;;;;;27.55;17.65;;;;;;;0.41;100.00;103061.28;10036312;29;20043;-72
2024/01/11 16:46:38;;;;;;;24.98;18.25;;;;;;;0.18;100.00;103043.44;10043688;29;20052;-72
2024/01/11 16:51:41;;;;;;;24.40;17.60;;;;;;;0.28;100.00;103031.53;10045785;29;20495;-72
2024/01/11 16:56:37;;;;;;;27.33;17.65;;;;;;;0.15;100.00;103021.50;10041328;29;20052;-72
2024/01/11 17:01:34;;;;;;;31.77;19.63;;;;;;;0.13;100.00;103018.97;10043914;29;20126;-72
2024/01/11 17:06:33;;;;;;;27.95;19.00;;;;;;;0.14;100.00;103026.03;10042036;29;20043;-73
2024/01/11 17:11:31;;;;;;;30.42;19.02;;;;;;;-0.08;100.00;103017.09;10024147;29;20119;-72
2024/01/11 17:16:28;;;;;;;28.70;19.02;;;;;;;-0.03;100.00;103014.69;10013251;29;20285;-72
2024/01/11 17:21:28;;;;;;;33.15;20.05;;;;;;;0.03;100.00;103018.47;10016169;29;20134;-70
2024/01/11 17:26:25;;;;;;;40.13;20.35;;;;;;;-0.01;100.00;103025.25;10033601;29;20047;-73
2024/01/11 17:31:21;;;;;;;29.45;19.98;;;;;;;-0.10;100.00;103018.31;10028102;29;20060;-72
2024/01/11 17:36:18;;;;;;;44.00;22.45;;;;;;;-0.06;100.00;103022.31;10029304;29;20055;-72
2024/01/11 17:41:14;;;;;;;40.35;22.92;;;;;;;-0.10;100.00;103019.16;10033202;28;20054;-72
2024/01/11 17:46:11;;;;;;;46.75;24.00;;;;;;;-0.15;100.00;103021.59;10028906;29;20120;-71
2024/01/11 17:51:11;;;;;;;40.17;22.42;;;;;;;-0.17;100.00;103012.03;10038667;29;20048;-72
2024/01/11 17:56:07;;;;;;;36.70;21.38;;;;;;;-0.23;100.00;103006.41;10052924;29;20102;-72
2024/01/11 18:01:04;;;;;;;41.15;21.65;;;;;;;-0.19;100.00;103008.72;10048630;29;20050;-72
2024/01/11 18:06:00;;;;;;;38.10;21.98;;;;;;;-0.25;100.00;103011.13;10038577;29;20050;-72
2024/01/11 18:10:57;;;;;;;34.58;22.25;;;;;;;-0.31;100.00;103006.50;10049510;29;20127;-72
2024/01/11 18:15:53;;;;;;;53.95;25.92;;;;;;;-0.33;100.00;103003.16;10048052;28;20110;-73
2024/01/11 18:20:50;;;;;;;35.72;22.27;;;;;;;-0.30;100.00;103008.19;10041500;29;20476;-72
2024/01/11 18:25:47;;;;;;;39.67;21.65;;;;;;;-0.32;100.00;103007.53;10031620;29;20126;-72
2024/01/11 18:30:43;;;;;;;31.42;21.08;;;;;;;-0.32;100.00;103012.91;10034679;29;20424;-72
2024/01/11 18:35:40;;;;;;;38.75;21.77;;;;;;;-0.38;100.00;103005.59;10035118;29;20043;-72
2024/01/11 18:40:36;;;;;;;38.63;22.38;;;;;;;-0.40;100.00;103007.63;10025589;29;20058;-71
2024/01/11 18:45:33;;;;;;;39.30;21.77;;;;;;;-0.46;100.00;103019.16;10032738;29;20730;-72
2024/01/11 18:50:29;;;;;;;37.97;22.67;;;;;;;-0.46;100.00;103008.41;10036304;29;20044;-72
2024/01/11 18:55:26;;;;;;;41.13;21.80;;;;;;;-0.48;100.00;103022.03;10047586;29;20066;-72
2024/01/11 19:00:23;;;;;;;37.28;23.55;;;;;;;-0.54;100.00;103011.19;10044133;29;20316;-73
2024/01/11 19:05:20;;;;;;;35.20;22.33;;;;;;;-0.71;100.00;103016.75;10044997;28;20040;-72
2024/01/11 19:10:17;;;;;;;39.05;21.25;;;;;;;-0.73;100.00;103018.78;10040909;29;20090;-72
2024/01/11 19:15:14;;;;;;;37.38;22.05;;;;;;;-0.78;100.00;103026.59;10038788;29;20048;-73
2024/01/11 19:20:12;;;;;;;27.42;21.02;;;;;;;-0.83;100.00;103018.25;10043030;29;20416;-70
2024/01/11 19:25:08;;;;;;;44.83;22.88;;;;;;;-0.71;100.00;103016.75;10044445;28;20841;-70
2024/01/11 19:30:07;;;;;;;34.47;21.70;;;;;;;-0.57;100.00;103022.31;10039181;29;20047;-70
2024/01/11 19:35:05;;;;;;;39.53;20.40;;;;;;;-0.54;100.00;103021.94;10035210;29;20092;-71
2024/01/11 19:40:02;;;;;;;62.70;20.52;;;;;;;-0.58;100.00;103020.63;10036421;29;20091;-72
2024/01/11 19:44:59;;;;;;;42.83;19.73;;;;;;;-0.65;100.00;103021.41;10043115;29;20050;-72
2024/01/11 19:49:56;;;;;;;58.10;19.58;;;;;;;-0.60;100.00;103028.03;10038327;29;20056;-71
2024/01/11 19:54:52;;;;;;;37.80;19.85;;;;;;;-0.60;100.00;103025.34;10032678;28;20130;-72
2024/01/11 19:59:49;;;;;;;37.13;19.10;;;;;;;-0.60;100.00;103017.28;10035698;29;20058;-72
2024/01/11 20:04:46;;;;;;;47.13;18.27;;;;;;;-0.78;100.00;103015.84;10034852;29;20179;-72
2024/01/11 20:09:43;;;;;;;33.17;16.98;;;;;;;-0.68;100.00;103021.75;10039241;29;20058;-73
2024/01/11 20:14:41;;;;;;;37.58;18.92;;;;;;;-0.56;100.00;103023.97;10031071;29;20456;-71
2024/01/11 20:19:37;;;;;;;24.95;19.33;;;;;;;-0.64;100.00;103028.44;10026857;29;20079;-71
2024/01/11 20:24:35;;;;;;;36.65;19.50;;;;;;;-0.70;100.00;103023.78;10027323;29;20055;-72
2024/01/11 20:29:31;;;;;;;25.92;19.50;;;;;;;-0.81;100.00;103018.91;10035646;29;20071;-72
2024/01/11 20:34:28;;;;;;;31.25;19.58;;;;;;;-0.79;100.00;103030.31;10048317;29;20043;-71
2024/01/11 20:39:25;;;;;;;34.80;20.73;;;;;;;-0.84;100.00;103021.94;10044317;29;20039;-72
2024/01/11 20:44:22;;;;;;;36.03;20.40;;;;;;;-0.90;100.00;103022.69;10039376;29;20142;-71
2024/01/11 20:49:19;;;;;;;29.90;21.50;;;;;;;-0.93;100.00;103021.22;10017022;29;20463;-75
2024/01/11 20:54:16;;;;;;;26.90;20.85;;;;;;;-0.91;100.00;103027.22;10033157;29;20522;-70
2024/01/11 20:59:12;;;;;;;35.40;20.77;;;;;;;-0.97;100.00;103027.13;10022615;29;20676;-68
2024/01/11 21:04:09;;;;;;;27.02;20.00;;;;;;;-1.02;100.00;103040.25;10029449;29;20129;-71
2024/01/11 21:09:06;;;;;;;26.45;19.27;;;;;;;-1.20;100.00;103049.50;10037897;29;20039;-71
2024/01/11 21:14:02;;;;;;;20.17;18.17;;;;;;;-1.18;100.00;103042.09;10027501;29;20048;-69
2024/01/11 21:18:59;;;;;;;21.45;19.10;;;;;;;-1.28;100.00;103033.47;10041051;28;20056;-70
2024/01/11 21:23:58;;;;;;;22.30;19.90;;;;;;;-1.27;100.00;103030.59;10040115;28;20126;-70
2024/01/11 21:28:55;;;;;;;19.40;16.88;;;;;;;-1.37;100.00;103043.44;10034721;29;20040;-70
2024/01/11 21:33:52;;;;;;;18.98;16.98;;;;;;;-1.52;100.00;103039.88;10029971;29;20063;-70
2024/01/11 21:38:51;;;;;;;28.73;17.63;;;;;;;-1.56;100.00;103043.94;10036107;29;20291;-69
2024/01/11 21:43:48;;;;;;;21.25;17.48;;;;;;;-1.66;100.00;103048.72;10030547;28;20050;-70
2024/01/11 21:48:44;;;;;;;23.98;17.25;;;;;;;-1.67;100.00;103050.56;10044111;29;20426;-71
2024/01/11 21:53:41;;;;;;;22.85;18.58;;;;;;;-1.59;100.00;103055.03;10030190;29;20063;-71
2024/01/11 21:58:38;;;;;;;20.55;18.13;;;;;;;-1.55;100.00;103050.97;10031485;29;20423;-70
2024/01/11 22:03:35;;;;;;;20.50;18.20;;;;;;;-1.50;100.00;103059.31;10043435;29;20575;-70
2024/01/11 22:08:32;;;;;;;25.42;20.23;;;;;;;-1.55;100.00;103041.09;10043096;29;20507;-70